createdAt,value
2023-03-06T00:02:33.920Z,4.81
2023-03-06T00:06:35.508Z,4.82
2023-03-06T00:10:37.960Z,4.80
2023-03-06T00:14:39.506Z,4.82
2023-03-06T00:18:41.757Z,4.83
2023-03-06T00:22:43.922Z,4.83
2023-03-06T00:26:45.682Z,4.82
2023-03-06T00:30:47.574Z,4.83
2023-03-06T00:34:50.532Z,4.83
2023-03-06T00:38:52.141Z,4.80
2023-03-06T00:42:53.702Z,4.82
2023-03-06T00:46:55.269Z,4.84
2023-03-06T00:50:56.813Z,4.76
2023-03-06T00:54:58.365Z,4.76
2023-03-06T00:58:59.909Z,4.76
2023-03-06T01:03:01.527Z,4.71
2023-03-06T01:07:03.238Z,4.68
2023-03-06T01:11:05.922Z,4.66
2023-03-06T01:15:08.147Z,4.66
2023-03-06T01:19:09.730Z,4.69
2023-03-06T01:23:11.269Z,4.67
2023-03-06T01:27:12.806Z,4.65
2023-03-06T01:31:14.654Z,4.62
2023-03-06T01:35:16.392Z,4.63
2023-03-06T01:39:18.003Z,4.60
2023-03-06T01:43:27.148Z,4.61
2023-03-06T01:47:29.290Z,4.60
2023-03-06T01:51:36.388Z,4.57
2023-03-06T01:55:38.972Z,4.55
2023-03-06T01:59:42.754Z,4.54
2023-03-06T02:03:47.357Z,4.60
2023-03-06T02:07:50.485Z,4.58
2023-03-06T02:11:52.161Z,4.56
2023-03-06T02:15:53.790Z,4.56
2023-03-06T02:20:13.772Z,4.60
2023-03-06T02:24:38.877Z,4.62
2023-03-06T02:28:40.865Z,4.63
2023-03-06T02:32:42.434Z,4.62
2023-03-06T02:36:53.864Z,4.55
2023-03-06T02:40:58.112Z,4.55
2023-03-06T02:45:05.684Z,4.51
2023-03-06T02:49:08.041Z,4.43
2023-03-06T02:53:11.285Z,4.41
2023-03-06T02:57:12.884Z,4.37
2023-03-06T03:01:14.991Z,4.35
2023-03-06T03:05:17.858Z,4.31
2023-03-06T03:09:24.608Z,4.28
2023-03-06T03:13:26.542Z,4.20
2023-03-06T03:17:28.192Z,4.18
2023-03-06T03:21:29.768Z,4.17
2023-03-06T03:25:31.543Z,4.17
2023-03-06T03:29:33.350Z,4.22
2023-03-06T03:33:35.164Z,4.23
2023-03-06T03:37:37.463Z,4.23
2023-03-06T03:41:39.711Z,4.27
2023-03-06T03:45:43.392Z,4.27
2023-03-06T03:49:45.333Z,4.28
2023-03-06T03:53:47.654Z,4.28
2023-03-06T03:57:53.432Z,4.25
2023-03-06T04:01:56.149Z,4.20
2023-03-06T04:05:59.351Z,4.18
2023-03-06T04:10:04.098Z,4.22
2023-03-06T04:14:08.310Z,4.16
2023-03-06T04:18:10.180Z,4.12
2023-03-06T04:22:11.960Z,4.10
2023-03-06T04:26:14.534Z,4.06
2023-03-06T04:30:16.504Z,4.05
2023-03-06T04:34:18.380Z,4.02
2023-03-06T04:38:21.316Z,4.04
2023-03-06T04:42:23.483Z,4.08
2023-03-06T04:46:31.294Z,4.31
2023-03-06T04:50:33.203Z,4.33
2023-03-06T04:54:35.490Z,4.29
2023-03-06T04:58:37.597Z,4.21
2023-03-06T05:02:41.604Z,3.99
2023-03-06T05:06:43.360Z,3.92
2023-03-06T05:10:45.581Z,3.85
2023-03-06T05:14:48.112Z,3.80
2023-03-06T05:18:50.751Z,3.77
2023-03-06T05:22:52.428Z,3.78
2023-03-06T05:26:54.124Z,3.75
2023-03-06T05:30:56.215Z,3.74
2023-03-06T05:34:57.803Z,3.71
2023-03-06T05:38:59.463Z,3.76
2023-03-06T05:43:01.023Z,3.72
2023-03-06T05:47:02.878Z,3.69
2023-03-06T05:51:05.690Z,3.68
2023-03-06T05:55:11.491Z,3.69
2023-03-06T05:59:13.179Z,3.70
2023-03-06T06:03:14.814Z,3.70
2023-03-06T06:07:17.106Z,3.71
2023-03-06T06:11:20.866Z,3.73
2023-03-06T06:15:22.860Z,3.71
2023-03-06T06:19:24.543Z,3.71
2023-03-06T06:23:26.151Z,3.77
2023-03-06T06:27:27.691Z,3.80
2023-03-06T06:31:29.701Z,3.83
2023-03-06T06:35:38.509Z,3.87
2023-03-06T06:39:40.804Z,3.83
2023-03-06T06:43:42.491Z,3.83
2023-03-06T06:47:44.629Z,3.85
2023-03-06T06:51:47.220Z,3.85
2023-03-06T06:55:49.473Z,3.92
2023-03-06T06:59:53.698Z,3.96
2023-03-06T07:03:56.559Z,3.99
2023-03-06T07:07:58.468Z,3.98
2023-03-06T07:12:00.108Z,4.00
2023-03-06T07:16:05.457Z,4.04
2023-03-06T07:20:10.710Z,4.05
2023-03-06T07:24:12.905Z,4.08
2023-03-06T07:28:18.684Z,4.21
2023-03-06T07:32:25.530Z,4.47
2023-03-06T07:36:29.062Z,4.80
2023-03-06T07:40:34.655Z,4.98
2023-03-06T07:44:41.142Z,5.13
2023-03-06T07:48:45.480Z,5.20
2023-03-06T07:52:50.611Z,5.13
2023-03-06T07:56:56.414Z,5.01
2023-03-06T08:01:00.234Z,4.97
2023-03-06T08:05:04.243Z,4.89
2023-03-06T08:09:06.408Z,4.86
2023-03-06T08:13:08.086Z,4.93
2023-03-06T08:17:09.681Z,4.95
2023-03-06T08:21:16.677Z,4.99
2023-03-06T08:25:21.403Z,5.04
2023-03-06T08:29:22.982Z,4.97
2023-03-06T08:33:25.200Z,5.00
2023-03-06T08:37:28.423Z,5.17
2023-03-06T08:41:32.490Z,5.21
2023-03-06T08:45:36.002Z,5.22
2023-03-06T08:49:40.369Z,5.29
2023-03-06T08:53:44.532Z,5.25
2023-03-06T08:57:47.394Z,5.28
2023-03-06T09:01:49.022Z,5.33
2023-03-06T09:05:50.999Z,5.48
2023-03-06T09:09:58.387Z,5.75
2023-03-06T09:14:03.340Z,5.87
2023-03-06T09:18:04.896Z,5.99
2023-03-06T09:22:08.555Z,6.15
2023-03-06T09:26:14.552Z,6.25
2023-03-06T09:30:19.349Z,6.43
2023-03-06T09:34:21.349Z,6.55
2023-03-06T09:38:26.193Z,6.69
2023-03-06T09:42:30.327Z,6.88
2023-03-06T09:46:52.671Z,6.67
2023-03-06T09:51:08.052Z,6.72
2023-03-06T09:55:15.857Z,6.77
2023-03-06T09:59:24.493Z,6.75
2023-03-06T10:03:38.058Z,6.92
2023-03-06T10:08:07.798Z,7.13
2023-03-06T10:12:35.293Z,7.42
2023-03-06T10:16:37.460Z,7.29
2023-03-06T10:20:54.484Z,7.17
2023-03-06T10:25:19.820Z,7.45
2023-03-06T10:29:56.324Z,7.75
2023-03-06T10:34:15.404Z,7.50
2023-03-06T10:38:32.715Z,7.45
2023-03-06T10:42:34.672Z,7.52
2023-03-06T10:46:44.379Z,7.25
2023-03-06T10:50:46.272Z,7.17
2023-03-06T10:54:50.678Z,7.19
2023-03-06T10:59:19.342Z,7.18
2023-03-06T11:03:24.339Z,6.94
2023-03-06T11:07:29.351Z,6.82
2023-03-06T11:11:37.606Z,7.09
2023-03-06T11:15:40.320Z,7.51
2023-03-06T11:19:43.649Z,7.92
2023-03-06T11:23:47.323Z,8.38
2023-03-06T11:28:27.873Z,8.72
2023-03-06T11:32:36.835Z,8.71
2023-03-06T11:36:56.505Z,9.01
2023-03-06T11:41:01.995Z,8.91
2023-03-06T11:45:34.074Z,8.99
2023-03-06T11:49:44.775Z,8.85
2023-03-06T11:53:48.852Z,8.92
2023-03-06T11:57:55.059Z,8.83
2023-03-06T12:02:02.974Z,8.76
2023-03-06T12:06:29.413Z,8.73
2023-03-06T12:10:41.538Z,8.44
2023-03-06T12:15:34.553Z,8.51
2023-03-06T12:19:39.125Z,8.86
2023-03-06T12:24:02.400Z,8.94
2023-03-06T12:28:29.100Z,9.18
2023-03-06T12:32:55.597Z,9.45
2023-03-06T12:37:42.974Z,9.64
2023-03-06T12:42:23.215Z,9.66
2023-03-06T12:46:28.105Z,9.43
2023-03-06T12:50:33.282Z,9.46
2023-03-06T12:54:40.619Z,9.22
2023-03-06T12:58:51.444Z,9.26
2023-03-06T13:03:11.566Z,8.89
2023-03-06T13:07:27.853Z,8.92
2023-03-06T13:12:03.440Z,9.34
2023-03-06T13:16:32.942Z,9.71
2023-03-06T13:20:46.292Z,9.59
2023-03-06T13:24:49.471Z,9.58
2023-03-06T13:28:54.288Z,9.56
2023-03-06T13:32:56.270Z,9.50
2023-03-06T13:37:16.780Z,9.43
2023-03-06T13:41:21.279Z,9.30
2023-03-06T13:45:29.285Z,9.13
2023-03-06T13:49:31.960Z,8.95
2023-03-06T13:53:46.809Z,8.61
2023-03-06T13:58:14.374Z,8.41
2023-03-06T14:02:39.884Z,8.18
2023-03-06T14:06:51.304Z,7.85
2023-03-06T14:11:07.293Z,7.33
2023-03-06T14:15:38.342Z,7.12
2023-03-06T14:19:42.569Z,6.98
2023-03-06T14:23:46.433Z,6.84
2023-03-06T14:27:54.945Z,6.73
2023-03-06T14:32:00.918Z,6.77
2023-03-06T14:36:09.850Z,6.66
2023-03-06T14:40:13.893Z,6.61
2023-03-06T14:44:26.566Z,6.53
2023-03-06T14:48:42.967Z,6.54
2023-03-06T14:52:46.206Z,6.36
2023-03-06T14:56:54.440Z,6.18
2023-03-06T15:01:01.336Z,6.00
2023-03-06T15:05:11.686Z,6.00
2023-03-06T15:09:27.252Z,5.96
2023-03-06T15:13:31.644Z,5.97
2023-03-06T15:17:43.231Z,6.02
2023-03-06T15:21:48.613Z,6.06
2023-03-06T15:26:01.034Z,6.06
2023-03-06T15:30:27.724Z,6.24
2023-03-06T15:34:30.250Z,6.39
2023-03-06T15:38:41.984Z,6.35
2023-03-06T15:42:43.579Z,6.37
2023-03-06T15:46:45.556Z,6.36
2023-03-06T15:50:47.281Z,6.33
2023-03-06T15:54:50.648Z,6.27
2023-03-06T15:58:54.216Z,6.12
2023-03-06T16:02:57.069Z,5.85
2023-03-06T16:06:58.650Z,5.66
2023-03-06T16:11:00.286Z,5.55
2023-03-06T16:15:05.247Z,5.45
2023-03-06T16:19:25.303Z,5.36
2023-03-06T16:23:28.217Z,5.34
2023-03-06T16:27:30.046Z,5.30
2023-03-06T16:31:41.315Z,5.27
2023-03-06T16:35:44.577Z,5.19
2023-03-06T16:39:46.282Z,5.19
2023-03-06T16:43:49.404Z,5.18
2023-03-06T16:47:51.691Z,5.21
2023-03-06T16:51:54.155Z,5.20
2023-03-06T16:55:56.172Z,5.18
2023-03-06T16:59:57.840Z,5.20
2023-03-06T17:03:59.963Z,5.20
2023-03-06T17:08:01.940Z,5.16
2023-03-06T17:12:03.751Z,5.10
2023-03-06T17:16:06.293Z,5.07
2023-03-06T17:20:08.750Z,5.01
2023-03-06T17:24:11.177Z,4.96
2023-03-06T17:28:13.813Z,4.94
2023-03-06T17:32:15.430Z,4.90
2023-03-06T17:36:19.440Z,4.86
2023-03-06T17:40:21.476Z,4.85
2023-03-06T17:44:23.197Z,4.85
2023-03-06T17:48:24.880Z,4.86
2023-03-06T17:52:26.603Z,4.81
2023-03-06T17:56:28.445Z,4.77
2023-03-06T18:00:30.054Z,4.72
2023-03-06T18:04:31.668Z,4.71
2023-03-06T18:08:34.448Z,4.63
2023-03-06T18:12:36.541Z,4.60
2023-03-06T18:16:38.502Z,4.52
2023-03-06T18:20:41.665Z,4.53
2023-03-06T18:24:43.580Z,4.48
2023-03-06T18:28:48.051Z,4.43
2023-03-06T18:32:49.845Z,4.44
2023-03-06T18:36:53.009Z,4.46
2023-03-06T18:40:54.664Z,4.46
2023-03-06T18:44:56.407Z,4.46
2023-03-06T18:48:58.155Z,4.42
2023-03-06T18:53:00.151Z,4.38
2023-03-06T18:57:01.881Z,4.33
2023-03-06T19:01:08.357Z,4.34
2023-03-06T19:05:10.993Z,4.29
2023-03-06T19:09:13.194Z,4.26
2023-03-06T19:13:15.172Z,4.28
2023-03-06T19:17:17.528Z,4.29
2023-03-06T19:21:21.410Z,4.22
2023-03-06T19:25:23.003Z,4.23
2023-03-06T19:29:24.618Z,4.25
2023-03-06T19:33:26.575Z,4.21
2023-03-06T19:37:30.130Z,4.20
2023-03-06T19:41:33.112Z,4.24
2023-03-06T19:45:36.787Z,4.22
2023-03-06T19:49:38.858Z,4.21
2023-03-06T19:53:40.972Z,4.16
2023-03-06T19:57:43.412Z,4.14
2023-03-06T20:01:45.615Z,4.08
2023-03-06T20:05:47.635Z,4.06
2023-03-06T20:09:50.124Z,4.05
2023-03-06T20:13:51.789Z,4.02
2023-03-06T20:17:56.410Z,3.91
2023-03-06T20:21:58.249Z,3.88
2023-03-06T20:26:05.171Z,3.83
2023-03-06T20:30:08.696Z,3.76
2023-03-06T20:34:10.935Z,3.63
2023-03-06T20:38:13.082Z,3.53
2023-03-06T20:42:15.087Z,3.46
2023-03-06T20:46:18.144Z,3.46
2023-03-06T20:50:19.731Z,3.48
2023-03-06T20:54:21.972Z,3.48
2023-03-06T20:58:26.446Z,3.52
2023-03-06T21:02:28.056Z,3.56
2023-03-06T21:06:30.613Z,3.58
2023-03-06T21:10:32.188Z,3.56
2023-03-06T21:14:34.508Z,3.52
2023-03-06T21:18:36.997Z,3.50
2023-03-06T21:22:38.847Z,3.55
2023-03-06T21:26:41.334Z,3.53
2023-03-06T21:30:44.566Z,3.43
2023-03-06T21:35:09.420Z,3.28
2023-03-06T21:39:30.394Z,3.27
2023-03-06T21:43:31.935Z,3.26
2023-03-06T21:47:38.631Z,3.20
2023-03-06T21:51:40.599Z,3.17
2023-03-06T21:55:42.146Z,3.11
2023-03-06T21:59:43.700Z,3.07
2023-03-06T22:03:45.546Z,3.03
2023-03-06T22:07:47.172Z,3.05
2023-03-06T22:11:48.730Z,3.04
2023-03-06T22:15:55.176Z,3.03
2023-03-06T22:24:53.521Z,3.06
2023-03-06T22:28:56.745Z,3.11
2023-03-06T22:32:58.673Z,3.11
2023-03-06T22:37:00.606Z,3.17
2023-03-06T22:41:02.914Z,3.23
2023-03-06T22:45:05.243Z,3.30
2023-03-06T22:49:06.999Z,3.39
2023-03-06T22:53:08.610Z,3.47
2023-03-06T22:57:10.148Z,3.55
2023-03-06T23:01:19.607Z,3.52
2023-03-06T23:05:21.482Z,3.59
2023-03-06T23:09:23.375Z,3.67
2023-03-06T23:13:43.364Z,3.72
2023-03-06T23:18:04.321Z,3.75
2023-03-06T23:22:24.479Z,3.72
2023-03-06T23:26:44.339Z,3.75
2023-03-06T23:30:45.944Z,3.77
2023-03-06T23:34:50.398Z,3.82
2023-03-06T23:38:52.015Z,3.85
2023-03-06T23:42:53.603Z,3.84
2023-03-06T23:46:55.147Z,3.82
2023-03-06T23:50:57.228Z,3.91
2023-03-06T23:54:58.939Z,3.89
2023-03-06T23:59:00.575Z,3.91
